Time;durP1;ratioP1;P1;durP2;ratioP2;P2;SDS_P1;SDS_P2;PMS_P1;PMS_P2;Temp;Humidity;BMP_temperature;BMP_pressure;BME280_temperature;BME280_humidity;BME280_pressure;Samples;Min_cycle;Max_cycle;Signal;HPM_P1;HPM_P2
2021/06/20 00:00:18;;;;;;;11.55;4.00;;;16.20;99.90;;;;;;2115020;28;21344;-62
2021/06/20 00:01:19;;;;;;;10.98;4.07;;;16.20;99.90;;;;;;2114762;28;20502;-63
2021/06/20 00:02:19;;;;;;;9.20;4.00;;;16.10;99.90;;;;;;2119801;28;20126;-62
2021/06/20 00:03:20;;;;;;;14.30;4.03;;;16.10;99.90;;;;;;2120567;28;20043;-61
2021/06/20 00:04:21;;;;;;;12.25;4.65;;;16.00;99.90;;;;;;2112567;27;20078;-61
2021/06/20 00:05:25;;;;;;;14.20;4.47;;;15.90;99.90;;;;;;2117840;28;20030;-61
2021/06/20 00:06:33;;;;;;;13.43;4.20;;;15.90;99.90;;;;;;2112501;27;20047;-61
2021/06/20 00:07:35;;;;;;;10.77;4.25;;;15.80;99.90;;;;;;2113779;27;20016;-62
2021/06/20 00:08:36;;;;;;;11.93;4.38;;;15.80;99.90;;;;;;2113118;28;20110;-62
2021/06/20 00:09:37;;;;;;;10.32;4.30;;;15.70;99.90;;;;;;2117662;27;20044;-61
2021/06/20 00:10:39;;;;;;;11.82;4.60;;;15.70;99.90;;;;;;2112736;28;20375;-62
2021/06/20 00:11:42;;;;;;;20.33;5.28;;;15.70;99.90;;;;;;2111286;28;20024;-63
2021/06/20 00:12:43;;;;;;;12.00;4.43;;;15.60;99.90;;;;;;2116039;28;20019;-63
2021/06/20 00:13:43;;;;;;;16.52;4.90;;;15.60;99.90;;;;;;2113972;28;20586;-63
2021/06/20 00:14:44;;;;;;;14.73;4.65;;;15.60;99.90;;;;;;2107710;28;20091;-63
2021/06/20 00:15:47;;;;;;;12.40;4.18;;;15.60;99.90;;;;;;2106995;28;20032;-63
2021/06/20 00:16:47;;;;;;;13.05;4.75;;;15.50;99.90;;;;;;2113901;28;20080;-62
2021/06/20 00:17:49;;;;;;;17.33;4.70;;;15.40;99.90;;;;;;2109251;28;20224;-62
2021/06/20 00:18:50;;;;;;;11.67;4.67;;;15.40;99.90;;;;;;2113535;28;20047;-61
2021/06/20 00:19:51;;;;;;;13.43;4.88;;;15.40;99.90;;;;;;2106562;28;20619;-61
2021/06/20 00:20:52;;;;;;;13.52;4.60;;;15.40;99.90;;;;;;2105338;28;20099;-63
2021/06/20 00:21:53;;;;;;;13.35;4.50;;;15.40;99.90;;;;;;2113675;28;20472;-63
2021/06/20 00:22:54;;;;;;;11.60;5.10;;;15.40;99.90;;;;;;2118281;27;20019;-62
2021/06/20 00:23:54;;;;;;;11.25;4.50;;;15.40;99.90;;;;;;2113154;28;20114;-61
2021/06/20 00:24:55;;;;;;;14.68;5.10;;;15.40;99.90;;;;;;2113866;28;20061;-62
2021/06/20 00:25:56;;;;;;;9.75;4.47;;;15.40;99.90;;;;;;2113883;28;20023;-61
2021/06/20 00:26:57;;;;;;;14.32;5.13;;;15.40;99.90;;;;;;2110719;28;20031;-61
2021/06/20 00:27:58;;;;;;;10.30;4.93;;;15.40;99.90;;;;;;2106983;28;20036;-61
2021/06/20 00:28:59;;;;;;;16.45;4.97;;;15.30;99.90;;;;;;2113420;28;20028;-62
2021/06/20 00:30:00;;;;;;;12.23;5.30;;;15.30;99.90;;;;;;2106126;28;20027;-62
2021/06/20 00:31:01;;;;;;;13.38;4.53;;;15.20;99.90;;;;;;2108434;28;20026;-62
2021/06/20 00:32:02;;;;;;;19.98;4.93;;;15.20;99.90;;;;;;2113794;28;20438;-62
2021/06/20 00:33:03;;;;;;;16.77;5.00;;;15.30;99.90;;;;;;2107897;28;20045;-62
2021/06/20 00:34:03;;;;;;;11.05;4.57;;;15.20;99.90;;;;;;2106078;28;20020;-63
2021/06/20 00:35:05;;;;;;;11.27;4.47;;;15.20;99.90;;;;;;2111153;28;20606;-61
2021/06/20 00:36:07;;;;;;;13.90;5.28;;;15.20;99.90;;;;;;2108692;28;20026;-62
2021/06/20 00:37:08;;;;;;;17.15;5.45;;;15.20;99.90;;;;;;2107851;28;20040;-62
2021/06/20 00:38:09;;;;;;;14.00;4.60;;;15.10;99.90;;;;;;2111335;28;20678;-61
2021/06/20 00:39:09;;;;;;;12.30;4.70;;;15.10;99.90;;;;;;2110083;28;20133;-61
2021/06/20 00:40:11;;;;;;;9.50;4.40;;;15.10;99.90;;;;;;2109452;28;20767;-61
2021/06/20 00:41:11;;;;;;;16.45;5.07;;;15.10;99.90;;;;;;2109393;28;20023;-61
2021/06/20 00:42:12;;;;;;;20.83;6.10;;;15.10;99.90;;;;;;2104381;28;20035;-62
2021/06/20 00:43:13;;;;;;;20.88;5.43;;;15.20;99.90;;;;;;2114016;28;20020;-61
2021/06/20 00:44:13;;;;;;;17.05;4.88;;;15.10;99.90;;;;;;2105881;28;20024;-62
2021/06/20 00:45:17;;;;;;;17.17;5.30;;;15.10;99.90;;;;;;2107139;28;20051;-61
2021/06/20 00:46:17;;;;;;;11.02;4.97;;;15.10;99.90;;;;;;2113629;28;20183;-63
2021/06/20 00:47:19;;;;;;;17.98;4.82;;;15.10;99.90;;;;;;2109927;28;20069;-62
2021/06/20 00:48:20;;;;;;;13.13;4.80;;;15.10;99.90;;;;;;2114833;28;20023;-63
2021/06/20 00:49:20;;;;;;;12.68;4.60;;;15.10;99.90;;;;;;2106140;28;20052;-62
2021/06/20 00:50:22;;;;;;;11.57;4.60;;;15.10;99.90;;;;;;2107940;28;20515;-62
2021/06/20 00:51:23;;;;;;;10.00;4.55;;;15.10;99.90;;;;;;2113965;28;20051;-61
2021/06/20 00:52:24;;;;;;;13.27;5.00;;;15.10;99.90;;;;;;2113232;28;20020;-61
2021/06/20 00:53:25;;;;;;;15.90;5.68;;;15.10;99.90;;;;;;2113945;28;20035;-61
2021/06/20 00:54:26;;;;;;;18.02;5.05;;;15.10;99.90;;;;;;2104679;28;20024;-61
2021/06/20 00:55:29;;;;;;;15.10;5.13;;;15.10;99.90;;;;;;2112686;28;20020;-61
2021/06/20 00:56:32;;;;;;;14.65;4.22;;;15.20;99.90;;;;;;2113566;28;20016;-62
2021/06/20 00:57:33;;;;;;;13.18;4.85;;;15.20;99.90;;;;;;2111297;28;20022;-61
2021/06/20 00:58:34;;;;;;;18.60;4.35;;;15.20;99.90;;;;;;2114299;28;20024;-62
2021/06/20 00:59:35;;;;;;;12.50;4.43;;;15.20;99.90;;;;;;2114445;28;20051;-62
2021/06/20 01:00:36;;;;;;;12.57;3.95;;;15.20;99.90;;;;;;2113183;28;20020;-61
2021/06/20 01:01:37;;;;;;;10.53;4.57;;;15.30;99.90;;;;;;2111206;28;20056;-61
2021/06/20 01:02:38;;;;;;;14.23;4.78;;;15.20;99.90;;;;;;2106897;28;20362;-61
2021/06/20 01:03:39;;;;;;;9.50;4.40;;;15.30;99.90;;;;;;2113745;28;20051;-62
2021/06/20 01:04:41;;;;;;;12.95;4.97;;;15.30;99.90;;;;;;2114365;28;20068;-61
2021/06/20 01:05:43;;;;;;;13.95;4.65;;;15.30;99.90;;;;;;2111305;28;20463;-62
2021/06/20 01:06:43;;;;;;;10.00;4.05;;;15.30;99.90;;;;;;2106140;28;20023;-62
2021/06/20 01:07:44;;;;;;;12.70;4.57;;;15.30;99.90;;;;;;2111156;28;20020;-62
2021/06/20 01:08:45;;;;;;;14.43;4.82;;;15.30;99.90;;;;;;2113165;28;20423;-62
2021/06/20 01:09:46;;;;;;;11.15;3.90;;;15.30;99.90;;;;;;2111377;28;20032;-62
2021/06/20 01:10:48;;;;;;;12.80;4.18;;;15.30;99.90;;;;;;2111562;28;20563;-62
2021/06/20 01:11:48;;;;;;;14.85;4.80;;;15.40;99.90;;;;;;2113811;28;20042;-62
2021/06/20 01:12:49;;;;;;;13.80;4.15;;;15.30;99.90;;;;;;2111056;28;20467;-62
2021/06/20 01:13:50;;;;;;;13.75;4.00;;;15.40;99.90;;;;;;2114514;28;20080;-62
2021/06/20 01:14:51;;;;;;;9.52;4.20;;;15.40;99.90;;;;;;2103729;28;20064;-61
2021/06/20 01:15:52;;;;;;;10.80;3.63;;;15.30;99.90;;;;;;2107880;28;20655;-63
2021/06/20 01:16:54;;;;;;;14.10;3.78;;;15.30;99.90;;;;;;2114336;28;20477;-63
2021/06/20 01:17:55;;;;;;;16.05;4.15;;;15.40;99.90;;;;;;2113993;28;20023;-62
2021/06/20 01:18:56;;;;;;;13.65;4.57;;;15.30;99.90;;;;;;2114214;28;20679;-61
2021/06/20 01:19:57;;;;;;;13.43;4.35;;;15.30;99.90;;;;;;2105432;28;20597;-61
2021/06/20 01:20:58;;;;;;;11.27;4.05;;;15.30;99.90;;;;;;2099183;28;20031;-62
2021/06/20 01:22:25;;;;;;;13.30;3.95;;;15.30;99.90;;;;;;2113828;28;20035;-62
2021/06/20 01:23:25;;;;;;;16.80;4.00;;;15.30;99.90;;;;;;2105187;28;20527;-62
2021/06/20 01:24:27;;;;;;;10.20;3.42;;;15.20;99.90;;;;;;2107518;28;20027;-62
2021/06/20 01:25:29;;;;;;;16.52;3.75;;;15.20;99.90;;;;;;2108553;28;20692;-62
2021/06/20 01:26:32;;;;;;;13.77;3.60;;;15.10;99.90;;;;;;2108785;28;20034;-62
2021/06/20 01:27:39;;;;;;;15.07;3.80;;;15.10;99.90;;;;;;2105568;28;20099;-62
2021/06/20 01:29:01;;;;;;;16.40;3.90;;;15.10;99.90;;;;;;2105579;28;20020;-62
2021/06/20 01:30:03;;;;;;;15.27;4.05;;;15.00;99.90;;;;;;2105983;28;20523;-62
2021/06/20 01:31:06;;;;;;;;;;;15.00;99.90;;;;;;2106208;28;20105;-63
2021/06/20 01:32:07;;;;;;;11.98;3.97;;;14.90;99.90;;;;;;2108044;28;19904;-62
2021/06/20 01:33:09;;;;;;;18.23;4.15;;;14.90;99.90;;;;;;2113222;28;20058;-62
2021/06/20 01:34:10;;;;;;;11.02;4.03;;;14.80;99.90;;;;;;2112155;28;20028;-61
2021/06/20 01:35:12;;;;;;;11.38;5.05;;;14.80;99.90;;;;;;2106017;28;20387;-61
2021/06/20 01:36:13;;;;;;;;;;;14.80;99.90;;;;;;2110426;28;20543;-61
2021/06/20 01:37:16;;;;;;;15.45;4.43;;;14.80;99.90;;;;;;2107222;28;19904;-61
2021/06/20 01:38:17;;;;;;;13.95;4.65;;;14.70;99.90;;;;;;2109505;28;20023;-63
2021/06/20 01:39:18;;;;;;;13.40;4.70;;;14.70;99.90;;;;;;2111026;28;20058;-62
2021/06/20 01:40:19;;;;;;;10.40;4.13;;;14.70;99.90;;;;;;2113687;28;20020;-62
2021/06/20 01:41:20;;;;;;;10.48;3.60;;;14.70;99.90;;;;;;2114215;28;20031;-62
2021/06/20 01:42:20;;;;;;;15.45;4.55;;;14.70;99.90;;;;;;2106468;28;20102;-63
2021/06/20 01:43:21;;;;;;;19.83;5.80;;;14.60;99.90;;;;;;2100731;28;20051;-62
2021/06/20 01:44:22;;;;;;;12.00;4.43;;;14.60;99.90;;;;;;2113124;28;20032;-62
2021/06/20 01:45:25;;;;;;;13.70;4.18;;;14.60;99.90;;;;;;2108809;28;20020;-63
2021/06/20 01:46:25;;;;;;;14.93;4.15;;;14.60;99.90;;;;;;2114387;28;20041;-62
2021/06/20 01:47:27;;;;;;;12.30;4.10;;;14.60;99.90;;;;;;2113727;28;20187;-63
2021/06/20 01:48:28;;;;;;;10.48;3.75;;;14.50;99.90;;;;;;2112687;28;20485;-62
2021/06/20 01:49:29;;;;;;;12.80;3.92;;;14.60;99.90;;;;;;2105683;28;20036;-62
2021/06/20 01:50:30;;;;;;;12.40;3.70;;;14.60;99.90;;;;;;2102283;28;20021;-62
2021/06/20 01:51:31;;;;;;;8.57;3.70;;;14.60;99.90;;;;;;2103868;28;20028;-62
2021/06/20 01:52:32;;;;;;;11.30;3.75;;;14.60;99.90;;;;;;2103369;28;20111;-63
2021/06/20 01:53:33;;;;;;;13.15;4.15;;;14.60;99.90;;;;;;2104465;28;20032;-62
2021/06/20 01:54:50;;;;;;;12.13;3.80;;;14.60;99.90;;;;;;2104951;28;20026;-62
2021/06/20 01:55:50;;;;;;;16.10;4.55;;;14.60;99.90;;;;;;2099588;28;20031;-61
2021/06/20 01:56:51;;;;;;;11.38;4.13;;;14.60;99.90;;;;;;2096632;28;20103;-62
2021/06/20 01:57:52;;;;;;;13.98;4.47;;;14.60;99.90;;;;;;2105319;28;20059;-63
2021/06/20 01:58:52;;;;;;;11.07;4.13;;;14.60;99.90;;;;;;2104891;28;20073;-61
2021/06/20 01:59:55;;;;;;;18.08;4.72;;;14.60;99.90;;;;;;2105667;28;20514;-62
2021/06/20 02:00:57;;;;;;;11.32;4.13;;;14.60;99.90;;;;;;2105167;28;20009;-61
2021/06/20 02:01:58;;;;;;;8.32;3.65;;;14.60;99.90;;;;;;2104537;28;20028;-61
2021/06/20 02:03:15;;;;;;;16.05;4.03;;;14.70;99.90;;;;;;2104935;28;20027;-61
2021/06/20 02:04:16;;;;;;;14.30;4.13;;;14.70;99.90;;;;;;2096878;28;20028;-61
2021/06/20 02:05:17;;;;;;;10.95;4.07;;;14.70;99.90;;;;;;2104648;28;20016;-62
2021/06/20 02:06:17;;;;;;;14.32;4.30;;;14.70;99.90;;;;;;2104736;28;20016;-62
2021/06/20 02:07:19;;;;;;;17.02;4.78;;;14.70;99.90;;;;;;2105134;28;20017;-62
2021/06/20 02:08:19;;;;;;;10.50;4.22;;;14.70;99.90;;;;;;2105801;28;20027;-62
2021/06/20 02:09:20;;;;;;;13.30;3.92;;;14.70;99.90;;;;;;2105010;28;20016;-62
2021/06/20 02:10:21;;;;;;;11.45;3.80;;;14.70;99.90;;;;;;2098844;28;20034;-61
2021/06/20 02:11:22;;;;;;;16.55;4.20;;;14.80;99.90;;;;;;2100005;28;20017;-62
2021/06/20 02:12:25;;;;;;;12.60;4.13;;;14.70;99.90;;;;;;2096687;28;20025;-62
2021/06/20 02:13:28;;;;;;;9.70;3.80;;;14.70;99.90;;;;;;2096375;28;20108;-62
2021/06/20 02:14:28;;;;;;;;;;;14.70;99.90;;;;;;2101822;28;20028;-62
2021/06/20 02:15:30;;;;;;;18.30;4.28;;;14.70;99.90;;;;;;2105670;28;19908;-62
2021/06/20 02:16:31;;;;;;;;;;;14.70;99.90;;;;;;2102465;28;20067;-62
2021/06/20 02:17:33;;;;;;;13.63;3.72;;;14.70;99.90;;;;;;2103982;28;20440;-62
2021/06/20 02:18:34;;;;;;;10.85;3.90;;;14.70;99.90;;;;;;2104665;28;20020;-61
2021/06/20 02:19:34;;;;;;;12.55;4.20;;;14.70;99.90;;;;;;2099299;28;20070;-61
2021/06/20 02:20:38;;;;;;;12.05;4.22;;;14.60;99.90;;;;;;2096353;28;20119;-61
2021/06/20 02:21:38;;;;;;;13.70;4.05;;;14.70;99.90;;;;;;2104423;28;20111;-62
2021/06/20 02:22:40;;;;;;;15.38;3.92;;;14.70;99.90;;;;;;2104380;28;20424;-61
2021/06/20 02:23:41;;;;;;;10.93;3.75;;;14.70;99.90;;;;;;2101870;28;20089;-61
2021/06/20 02:24:42;;;;;;;15.68;4.53;;;14.60;99.90;;;;;;2097279;28;20028;-62
2021/06/20 02:25:42;;;;;;;10.90;3.92;;;14.70;99.90;;;;;;2104110;28;20149;-61
2021/06/20 02:26:43;;;;;;;13.05;3.67;;;14.70;99.90;;;;;;2102223;28;20032;-62
2021/06/20 02:27:47;;;;;;;14.38;4.47;;;14.70;99.90;;;;;;2098221;28;20047;-62
2021/06/20 02:28:47;;;;;;;16.83;3.95;;;14.60;99.90;;;;;;2096014;28;20825;-62
2021/06/20 02:29:50;;;;;;;14.18;3.85;;;14.70;99.90;;;;;;2103476;28;20027;-61
2021/06/20 02:30:52;;;;;;;8.10;3.50;;;14.60;99.90;;;;;;2105214;28;20035;-63
2021/06/20 02:31:53;;;;;;;10.90;3.65;;;14.60;99.90;;;;;;2105674;28;20464;-62
2021/06/20 02:32:54;;;;;;;13.73;3.65;;;14.60;99.90;;;;;;2104743;28;20020;-62
2021/06/20 02:33:55;;;;;;;14.80;3.97;;;14.60;99.90;;;;;;2105353;28;20511;-63
2021/06/20 02:34:56;;;;;;;15.30;4.28;;;14.60;99.90;;;;;;2102298;28;20028;-63
2021/06/20 02:35:57;;;;;;;12.27;3.83;;;14.60;99.90;;;;;;2104296;28;20028;-62
2021/06/20 02:36:57;;;;;;;12.95;3.97;;;14.50;99.90;;;;;;2104943;28;20099;-62
2021/06/20 02:37:58;;;;;;;18.17;4.75;;;14.60;99.90;;;;;;2105306;28;20031;-62
2021/06/20 02:38:59;;;;;;;13.77;4.43;;;14.60;99.90;;;;;;2105251;28;20077;-62
2021/06/20 02:40:00;;;;;;;12.65;4.45;;;14.50;99.90;;;;;;2104970;28;20016;-62
2021/06/20 02:41:01;;;;;;;11.55;3.58;;;14.50;99.90;;;;;;2105595;28;20056;-62
2021/06/20 02:42:02;;;;;;;10.85;3.80;;;14.50;99.90;;;;;;2105199;28;20028;-62
2021/06/20 02:43:02;;;;;;;12.13;4.13;;;14.50;99.90;;;;;;2105432;28;20407;-62
2021/06/20 02:44:03;;;;;;;12.00;3.63;;;14.40;99.90;;;;;;2105326;28;20020;-63
2021/06/20 02:45:08;;;;;;;13.93;3.85;;;14.50;99.90;;;;;;2098196;28;20116;-62
2021/06/20 02:46:08;;;;;;;10.52;3.60;;;14.40;99.90;;;;;;2097609;28;20021;-62
2021/06/20 02:47:09;;;;;;;11.93;3.58;;;14.40;99.90;;;;;;2101171;28;20020;-62
2021/06/20 02:48:10;;;;;;;19.20;3.78;;;14.40;99.90;;;;;;2105213;28;20023;-62
2021/06/20 02:49:11;;;;;;;15.57;3.88;;;14.40;99.90;;;;;;2105153;28;20022;-62
2021/06/20 02:50:12;;;;;;;10.82;3.65;;;14.40;99.90;;;;;;2104650;28;20674;-62
2021/06/20 02:51:13;;;;;;;8.32;3.90;;;14.40;99.90;;;;;;2105560;28;20028;-62
2021/06/20 02:52:14;;;;;;;18.02;4.05;;;14.40;99.90;;;;;;2104877;28;20665;-62
2021/06/20 02:53:15;;;;;;;11.65;3.80;;;14.40;99.90;;;;;;2101264;28;20023;-62
2021/06/20 02:54:16;;;;;;;16.45;4.32;;;14.40;99.90;;;;;;2103872;28;20107;-63
2021/06/20 02:55:17;;;;;;;12.60;4.00;;;14.50;99.90;;;;;;2095840;28;20393;-62
2021/06/20 02:56:17;;;;;;;9.10;3.83;;;14.50;99.90;;;;;;2104775;28;20020;-62
2021/06/20 02:57:27;;;;;;;9.20;3.60;;;14.50;99.90;;;;;;2105193;28;20016;-62
2021/06/20 02:58:28;;;;;;;13.48;4.18;;;14.60;99.90;;;;;;2102905;28;20032;-62
2021/06/20 02:59:29;;;;;;;11.75;4.28;;;14.60;99.90;;;;;;2103754;28;20519;-62
2021/06/20 03:00:29;;;;;;;11.85;3.83;;;14.60;99.90;;;;;;2104892;28;20647;-62
2021/06/20 03:01:30;;;;;;;13.63;3.85;;;14.70;99.90;;;;;;2096765;28;20366;-62
2021/06/20 03:02:31;;;;;;;12.63;3.78;;;14.60;99.90;;;;;;2100454;28;20778;-62
2021/06/20 03:03:32;;;;;;;15.27;4.10;;;14.60;99.90;;;;;;2096089;28;20024;-62
2021/06/20 03:04:33;;;;;;;12.38;3.67;;;14.60;99.90;;;;;;2104267;28;20479;-62
2021/06/20 03:05:33;;;;;;;12.15;4.18;;;14.60;99.90;;;;;;2104787;28;20682;-63
2021/06/20 03:06:34;;;;;;;13.85;3.95;;;14.60;99.90;;;;;;2105476;28;20506;-63
2021/06/20 03:07:35;;;;;;;10.82;4.03;;;14.60;99.90;;;;;;2098973;28;20112;-62
2021/06/20 03:08:35;;;;;;;11.85;3.90;;;14.60;99.90;;;;;;2100197;28;20664;-62
2021/06/20 03:09:37;;;;;;;11.85;3.92;;;14.50;99.90;;;;;;2103690;28;20428;-62
2021/06/20 03:10:38;;;;;;;10.45;3.85;;;14.50;99.90;;;;;;2104460;28;20017;-62
2021/06/20 03:11:42;;;;;;;12.52;4.10;;;14.50;99.90;;;;;;2105250;28;20020;-63
2021/06/20 03:12:43;;;;;;;11.98;3.90;;;14.50;99.90;;;;;;2098058;28;20020;-62
2021/06/20 03:13:43;;;;;;;15.48;4.03;;;14.40;99.90;;;;;;2096545;28;20075;-62
2021/06/20 03:14:45;;;;;;;13.30;4.57;;;14.40;99.90;;;;;;2096538;28;20028;-62
2021/06/20 03:15:46;;;;;;;9.80;3.90;;;14.40;99.90;;;;;;2098029;28;20526;-62
2021/06/20 03:16:47;;;;;;;13.27;4.20;;;14.40;99.90;;;;;;2097330;28;20033;-63
2021/06/20 03:17:48;;;;;;;12.60;4.57;;;14.40;99.90;;;;;;2101355;28;20698;-62
2021/06/20 03:18:49;;;;;;;16.42;4.40;;;14.40;99.90;;;;;;2104947;28;20028;-63
2021/06/20 03:19:50;;;;;;;15.00;4.95;;;14.40;99.90;;;;;;2104550;28;20027;-62
2021/06/20 03:20:51;;;;;;;14.70;4.50;;;14.40;99.90;;;;;;2105016;28;20027;-63
2021/06/20 03:21:57;;;;;;;17.00;4.40;;;14.40;99.90;;;;;;2104976;28;20124;-62
2021/06/20 03:22:57;;;;;;;12.02;4.47;;;14.40;99.90;;;;;;2097626;28;20029;-62
2021/06/20 03:23:58;;;;;;;15.13;4.75;;;14.40;99.90;;;;;;2100219;28;20048;-62
2021/06/20 03:24:59;;;;;;;14.77;4.00;;;14.40;99.90;;;;;;2098662;28;20075;-62
2021/06/20 03:25:59;;;;;;;14.38;5.03;;;14.40;99.90;;;;;;2100634;28;20069;-63
2021/06/20 03:27:01;;;;;;;11.07;4.45;;;14.40;99.90;;;;;;2104657;28;20030;-62
2021/06/20 03:28:02;;;;;;;14.30;4.53;;;14.40;99.90;;;;;;2104187;28;20621;-62
2021/06/20 03:29:04;;;;;;;10.88;4.78;;;14.30;99.90;;;;;;2104778;28;20028;-62
2021/06/20 03:30:06;;;;;;;11.23;4.13;;;14.30;99.90;;;;;;2103122;28;20591;-62
2021/06/20 03:31:07;;;;;;;12.35;4.03;;;14.30;99.90;;;;;;2099272;28;20062;-62
2021/06/20 03:32:08;;;;;;;15.50;4.22;;;14.30;99.90;;;;;;2096191;28;20027;-62
2021/06/20 03:33:09;;;;;;;13.02;4.40;;;14.30;99.90;;;;;;2104155;28;20027;-62
2021/06/20 03:34:09;;;;;;;12.30;4.18;;;14.30;99.90;;;;;;2104064;28;20024;-62
2021/06/20 03:35:11;;;;;;;16.08;4.90;;;14.30;99.90;;;;;;2104739;28;20625;-62
2021/06/20 03:36:12;;;;;;;14.70;5.30;;;14.30;99.90;;;;;;2104968;28;20020;-62
2021/06/20 03:37:13;;;;;;;14.48;4.63;;;14.30;99.90;;;;;;2104282;28;20032;-63
2021/06/20 03:38:14;;;;;;;15.98;5.95;;;14.30;99.90;;;;;;2104145;28;20043;-62
2021/06/20 03:39:15;;;;;;;17.98;4.78;;;14.30;99.90;;;;;;2104969;28;20027;-62
2021/06/20 03:40:16;;;;;;;18.05;4.50;;;14.30;99.90;;;;;;2101677;28;20549;-62
2021/06/20 03:41:16;;;;;;;17.95;4.60;;;14.30;99.90;;;;;;2104150;28;20552;-62
2021/06/20 03:42:17;;;;;;;13.13;4.85;;;14.30;99.90;;;;;;2104818;28;20028;-62
2021/06/20 03:43:18;;;;;;;13.90;4.30;;;14.30;99.90;;;;;;2104481;28;20453;-62
2021/06/20 03:44:18;;;;;;;16.38;4.80;;;14.40;99.90;;;;;;2104706;28;20502;-62
2021/06/20 03:45:19;;;;;;;15.52;5.53;;;14.30;99.90;;;;;;2105021;28;20055;-62
2021/06/20 03:46:20;;;;;;;13.40;5.30;;;14.30;99.90;;;;;;2104621;28;20062;-62
2021/06/20 03:47:21;;;;;;;16.33;5.28;;;14.40;99.90;;;;;;2098775;28;20527;-62
2021/06/20 03:48:21;;;;;;;10.73;4.95;;;14.40;99.90;;;;;;2101221;28;20518;-62
2021/06/20 03:49:22;;;;;;;14.23;5.03;;;14.40;99.90;;;;;;2106341;28;20066;-62
2021/06/20 03:50:25;;;;;;;14.93;5.20;;;14.50;99.90;;;;;;2101166;28;20020;-62
2021/06/20 03:51:26;;;;;;;10.57;4.65;;;14.50;99.90;;;;;;2105913;28;20503;-62
2021/06/20 03:52:26;;;;;;;17.02;5.10;;;14.50;99.90;;;;;;2103308;28;20028;-62
2021/06/20 03:53:27;;;;;;;12.70;4.90;;;14.50;99.90;;;;;;2105528;28;20028;-62
2021/06/20 03:54:28;;;;;;;16.45;4.95;;;14.50;99.90;;;;;;2105735;28;20024;-62
2021/06/20 03:55:29;;;;;;;13.45;4.78;;;14.50;99.90;;;;;;2105644;28;20592;-62
2021/06/20 03:56:29;;;;;;;13.68;4.57;;;14.50;99.90;;;;;;2105818;28;20110;-62
2021/06/20 03:57:30;;;;;;;13.60;4.90;;;14.60;99.90;;;;;;2098310;28;20040;-63
2021/06/20 03:58:31;;;;;;;12.23;4.57;;;14.60;99.90;;;;;;2102128;28;20055;-63
2021/06/20 03:59:32;;;;;;;15.00;5.43;;;14.60;99.90;;;;;;2100874;28;20025;-62
2021/06/20 04:00:34;;;;;;;9.40;4.45;;;14.60;99.90;;;;;;2104232;28;20446;-63
2021/06/20 04:01:36;;;;;;;17.15;4.47;;;14.60;99.90;;;;;;2105725;28;20036;-63
2021/06/20 04:02:36;;;;;;;13.85;4.28;;;14.60;99.90;;;;;;2106195;28;20119;-62
2021/06/20 04:03:37;;;;;;;13.48;4.90;;;14.60;99.90;;;;;;2105726;28;20024;-62
2021/06/20 04:04:40;;;;;;;16.58;5.47;;;14.60;99.90;;;;;;2105753;28;20024;-63
2021/06/20 04:05:41;;;;;;;13.50;4.53;;;14.60;99.90;;;;;;2103337;28;20078;-62
2021/06/20 04:06:42;;;;;;;14.55;4.57;;;14.60;99.90;;;;;;2105536;28;20056;-62
2021/06/20 04:07:42;;;;;;;13.27;4.82;;;14.60;99.90;;;;;;2106100;28;20657;-62
2021/06/20 04:08:43;;;;;;;9.98;4.05;;;14.60;99.90;;;;;;2105336;28;20024;-62
2021/06/20 04:09:45;;;;;;;13.10;4.50;;;14.60;99.90;;;;;;2105675;28;20403;-62
2021/06/20 04:10:45;;;;;;;13.52;4.88;;;14.60;99.90;;;;;;2099804;28;20052;-63
2021/06/20 04:11:47;;;;;;;13.73;4.95;;;14.70;99.90;;;;;;2102569;28;20043;-63
2021/06/20 04:12:47;;;;;;;17.77;5.65;;;14.60;99.90;;;;;;2105414;28;20024;-62
2021/06/20 04:13:48;;;;;;;14.73;4.60;;;14.60;99.90;;;;;;2105725;28;20031;-62
2021/06/20 04:14:49;;;;;;;14.48;5.07;;;14.60;99.90;;;;;;2102640;28;20024;-62
2021/06/20 04:15:50;;;;;;;20.77;5.15;;;14.60;99.90;;;;;;2099304;28;20388;-62
2021/06/20 04:16:51;;;;;;;12.30;4.80;;;14.60;99.90;;;;;;2098932;28;20023;-62
2021/06/20 04:17:51;;;;;;;14.77;4.68;;;14.60;99.90;;;;;;2106444;28;20089;-63
2021/06/20 04:18:52;;;;;;;16.85;5.20;;;14.60;99.90;;;;;;2102481;28;20103;-62
2021/06/20 04:19:52;;;;;;;16.83;5.22;;;14.60;99.90;;;;;;2098376;28;20028;-62
2021/06/20 04:20:53;;;;;;;15.95;4.60;;;14.60;99.90;;;;;;2099423;28;20791;-62
2021/06/20 04:21:54;;;;;;;12.02;4.85;;;14.60;99.90;;;;;;2105671;28;20523;-62
2021/06/20 04:22:54;;;;;;;13.00;4.45;;;14.60;99.90;;;;;;2105828;28;20020;-62
2021/06/20 04:23:55;;;;;;;16.23;4.75;;;14.60;99.90;;;;;;2113686;28;20426;-62
2021/06/20 04:24:56;;;;;;;14.13;4.75;;;14.60;99.90;;;;;;2114454;28;20440;-63
2021/06/20 04:25:56;;;;;;;15.55;4.88;;;14.60;99.90;;;;;;2106153;28;20051;-63
2021/06/20 04:26:57;;;;;;;14.38;4.50;;;14.60;99.90;;;;;;2105846;28;20103;-62
2021/06/20 04:27:58;;;;;;;19.98;5.20;;;14.60;99.90;;;;;;2102540;28;20028;-63
2021/06/20 04:28:58;;;;;;;11.18;5.10;;;14.60;99.90;;;;;;2098883;28;20455;-61
2021/06/20 04:29:59;;;;;;;12.57;4.85;;;14.60;99.90;;;;;;2106099;28;20364;-63
2021/06/20 04:31:00;;;;;;;16.85;4.68;;;14.60;99.90;;;;;;2106039;28;20080;-61
2021/06/20 04:32:00;;;;;;;14.55;5.13;;;14.60;99.90;;;;;;2106480;28;20024;-61
2021/06/20 04:33:03;;;;;;;12.90;4.63;;;14.60;99.90;;;;;;2105793;28;20035;-63
2021/06/20 04:34:03;;;;;;;15.23;5.53;;;14.60;99.90;;;;;;2106005;28;20027;-61
2021/06/20 04:35:04;;;;;;;13.13;4.82;;;14.70;99.90;;;;;;2106311;28;20024;-61
2021/06/20 04:36:06;;;;;;;13.73;4.60;;;14.70;99.90;;;;;;2101547;28;20531;-61
2021/06/20 04:37:06;;;;;;;15.20;4.75;;;14.70;99.90;;;;;;2103172;28;20074;-62
2021/06/20 04:38:07;;;;;;;14.55;4.90;;;14.80;99.90;;;;;;2104660;28;20063;-62
2021/06/20 04:39:09;;;;;;;17.52;4.80;;;14.90;99.90;;;;;;2105972;28;20418;-61
2021/06/20 04:40:14;;;;;;;;;;;15.10;99.90;;;;;;2106679;28;20120;-61
2021/06/20 04:41:17;;;;;;;14.80;4.57;;;15.40;99.90;;;;;;2106185;28;19950;-61
2021/06/20 04:42:20;;;;;;;16.13;4.95;;;15.50;99.90;;;;;;2105886;28;20138;-61
2021/06/20 04:43:25;;;;;;;15.48;4.28;;;15.70;99.90;;;;;;2105915;28;20043;-61
2021/06/20 04:44:45;;;;;;;15.57;4.15;;;15.90;99.90;;;;;;2104683;28;20035;-61
2021/06/20 04:45:46;;;;;;;10.10;3.85;;;16.10;99.90;;;;;;2101880;28;20582;-61
2021/06/20 04:46:46;;;;;;;17.77;4.22;;;16.10;99.90;;;;;;2098711;28;20020;-62
2021/06/20 04:47:47;;;;;;;13.23;4.10;;;16.20;99.90;;;;;;2106143;28;20381;-61
2021/06/20 04:48:51;;;;;;;14.95;4.18;;;16.30;99.90;;;;;;2106032;28;20089;-61
2021/06/20 04:49:53;;;;;;;13.30;3.78;;;16.40;99.90;;;;;;2106392;28;20511;-61
2021/06/20 04:50:54;;;;;;;13.45;4.03;;;16.40;99.90;;;;;;2105903;28;20380;-61
2021/06/20 04:51:55;;;;;;;11.43;4.03;;;16.40;99.90;;;;;;2106047;28;20546;-61
2021/06/20 04:52:56;;;;;;;14.10;4.28;;;16.40;99.90;;;;;;2106308;28;20024;-61
2021/06/20 04:53:57;;;;;;;12.88;3.65;;;16.40;99.90;;;;;;2102446;28;20168;-61
2021/06/20 04:54:58;;;;;;;17.33;4.38;;;16.40;99.90;;;;;;2105403;28;20031;-62
2021/06/20 04:55:58;;;;;;;10.98;3.85;;;16.30;99.90;;;;;;2105697;28;20060;-62
2021/06/20 04:56:59;;;;;;;16.77;4.30;;;16.20;99.90;;;;;;2105761;28;20024;-62
2021/06/20 04:58:01;;;;;;;15.63;3.83;;;16.10;99.90;;;;;;2106355;28;20019;-62
2021/06/20 04:59:01;;;;;;;9.70;3.80;;;16.00;99.90;;;;;;2105932;28;20024;-63
2021/06/20 05:00:05;;;;;;;11.98;4.03;;;15.90;99.90;;;;;;2105975;28;20440;-61
2021/06/20 05:01:05;;;;;;;9.55;3.63;;;15.90;99.90;;;;;;2099052;28;20058;-61
2021/06/20 05:02:06;;;;;;;8.70;3.92;;;15.90;99.90;;;;;;2098526;28;20633;-62
2021/06/20 05:03:07;;;;;;;11.40;4.30;;;15.80;99.90;;;;;;2105070;28;20113;-61
2021/06/20 05:04:08;;;;;;;15.43;4.22;;;15.80;99.90;;;;;;2105124;28;20680;-61
2021/06/20 05:05:10;;;;;;;14.50;4.65;;;15.90;99.90;;;;;;2105289;28;20087;-62
2021/06/20 05:06:11;;;;;;;14.63;3.83;;;15.90;99.90;;;;;;2105250;28;20555;-62
2021/06/20 05:07:12;;;;;;;12.55;3.67;;;15.90;99.90;;;;;;2105899;28;20021;-61
2021/06/20 05:08:13;;;;;;;11.23;3.78;;;16.00;99.90;;;;;;2105609;28;20043;-62
2021/06/20 05:09:13;;;;;;;13.43;4.07;;;16.10;99.90;;;;;;2105063;28;20468;-61
2021/06/20 05:10:14;;;;;;;11.95;4.07;;;16.00;99.90;;;;;;2102535;28;20705;-61
2021/06/20 05:11:15;;;;;;;16.63;4.57;;;15.90;99.90;;;;;;2104714;28;20042;-61
2021/06/20 05:12:16;;;;;;;12.38;3.83;;;15.90;99.90;;;;;;2105450;28;20392;-62
2021/06/20 05:13:17;;;;;;;9.30;4.22;;;15.90;99.90;;;;;;2101921;28;20016;-62
2021/06/20 05:14:17;;;;;;;11.68;4.05;;;15.90;99.90;;;;;;2099103;28;20026;-62
2021/06/20 05:15:18;;;;;;;13.00;4.05;;;15.80;99.90;;;;;;2105597;28;20104;-62
2021/06/20 05:16:19;;;;;;;14.60;4.07;;;15.80;99.90;;;;;;2105753;28;20113;-62